Kimball, NE

5:36 AM MST on December 03, 2016 (GMT -0700)
Kimball Municipal-Arraj

Weather History for KIBM - September, 2013

Change the Weather History Date:

Thursday, September 19, 2013

  Actual Average (KSNY) Record (KSNY)
Temperature  
Mean Temperature 56 °F 62 °F  
Max Temperature 65 °F 77 °F 92 °F (2014)
Min Temperature 47 °F 47 °F 28 °F (1971)
Degree Days  
Heating Degree Days 8 5  
Month to date heating degree days 49  
Since 1 July heating degree days 60  
Cooling Degree Days 0 2  
Month to date cooling degree days 71  
Year to date cooling degree days 813  
Growing Degree Days 6 (Base 50)    
Moisture  
Dew Point 42 °F    
Average Humidity 60    
Maximum Humidity 89    
Minimum Humidity 31    
Precipitation  
Precipitation 0.15 in 0.04 in 1.11 in (1950)
Month to date precipitation 0.88  
Year to date precipitation 16.04  
Sea Level Pressure  
Sea Level Pressure 30.07 in    
Wind  
Wind Speed 11 mph (NNW)    
Max Wind Speed 22 mph    
Max Gust Speed 31 mph    
Visibility 10 miles    
Events Rain , Thunderstorm    
T = Trace of Precipitation, MM = Missing Value Source: NWS Daily Summary

Daily Weather History Graph

Daily Weather History Graph

Search for Another Location

Airport or City:

Trip Planner

Search our weather history database for the weather conditions in past years. The results will help you decide how hot, cold, wet, or windy it might be!

Date:

Astronomy

Sep. 19, 2013 Rise Set
Actual Time 7:39 AM CDT 7:56 PM CDT
Civil Twilight 7:11 AM CDT 8:24 PM CDT
Nautical Twilight 6:39 AM CDT 8:56 PM CDT
Astronomical Twilight 6:06 AM CDT 9:29 PM CDT
Moon 7:55 PM CDT (9/19) 7:51 AM CDT (9/19)
Length of Visible Light 13h 12m
Length of Day
12h 17m
Full, 100% of the Moon is Illuminated
Sep 19
Full
Sep 26
Last Quarter
Oct 4
New
Oct 11
First Quarter
Oct 18
Full

Hourly Weather History & Observations

Time (CDT) Temp. Dew Point Humidity Pressure Visibility Wind Dir Wind Speed Gust Speed Precip Events Conditions
12:15 AM 60.8 °F 53.4 °F 77% 29.89 in 10.0 mi WSW 3.5 mph - N/A   Clear
12:35 AM 59.0 °F 53.6 °F 82% 29.90 in 10.0 mi West 4.6 mph - N/A   Clear
12:36 AM 59.0 °F 53.6 °F 82% 29.90 in 10.0 mi West 5.8 mph - N/A   Clear
12:55 AM 59.9 °F 53.6 °F 80% 29.90 in 10.0 mi WNW 6.9 mph - N/A   Clear
1:15 AM 59.5 °F 52.9 °F 79% 29.91 in 10.0 mi WNW 10.4 mph - N/A   Clear
1:35 AM 59.5 °F 52.5 °F 78% 29.91 in 10.0 mi NW 8.1 mph - N/A   Clear
1:55 AM 59.2 °F 51.6 °F 76% 29.92 in 10.0 mi WNW 9.2 mph - N/A   Clear
2:15 AM 60.3 °F 49.3 °F 67% 29.93 in 10.0 mi NW 11.5 mph - N/A   Clear
2:35 AM 60.4 °F 47.5 °F 62% 29.94 in 10.0 mi NW 13.8 mph 19.6 mph N/A   Clear
2:55 AM 61.2 °F 43.7 °F 53% 29.94 in 10.0 mi NNW 16.1 mph 23.0 mph N/A   Clear
3:15 AM 60.3 °F 42.3 °F 51% 29.95 in 10.0 mi NW 13.8 mph 19.6 mph N/A   Clear
3:35 AM 58.1 °F 44.2 °F 60% 29.95 in 10.0 mi NNW 16.1 mph 20.7 mph N/A   Clear
3:55 AM 55.9 °F 45.7 °F 68% 29.95 in 10.0 mi NW 16.1 mph 21.9 mph N/A   Clear
4:15 AM 55.0 °F 45.5 °F 70% 29.97 in 10.0 mi NNW 16.1 mph 21.9 mph N/A   Clear
4:35 AM 55.0 °F 44.6 °F 68% 29.97 in 10.0 mi NNW 18.4 mph 24.2 mph N/A   Clear
4:55 AM 54.7 °F 43.7 °F 66% 29.98 in 10.0 mi NNW 17.3 mph 23.0 mph N/A   Clear
5:15 AM 54.0 °F 42.1 °F 64% 29.98 in 10.0 mi NNW 21.9 mph 27.6 mph N/A   Clear
5:35 AM 53.6 °F 41.5 °F 64% 29.99 in 10.0 mi NNW 21.9 mph 27.6 mph N/A Thunderstorm Clear
5:55 AM 53.6 °F 41.2 °F 63% 29.98 in 10.0 mi North 20.7 mph 31.1 mph N/A   Clear
6:15 AM 53.1 °F 41.7 °F 65% 29.99 in 10.0 mi North 18.4 mph 26.5 mph N/A   Clear
6:35 AM 53.1 °F 42.4 °F 67% 30.02 in 10.0 mi NNW 16.1 mph - N/A   Mostly Cloudy
6:55 AM 52.9 °F 42.6 °F 68% 30.03 in 10.0 mi NNW 16.1 mph 24.2 mph N/A Rain Light Rain
7:15 AM 52.2 °F 42.8 °F 70% 30.07 in 10.0 mi NW 10.4 mph 19.6 mph N/A Rain Light Rain
7:35 AM 50.7 °F 44.4 °F 79% 30.08 in 10.0 mi NNW 11.5 mph - 0.01 in Rain Light Rain
7:55 AM 50.0 °F 45.5 °F 85% 30.12 in 10.0 mi WNW 15.0 mph - 0.01 in Rain Rain
8:15 AM 49.1 °F 45.9 °F 89% 30.13 in 5.0 mi WNW 15.0 mph - 0.03 in Rain Rain
8:35 AM 49.1 °F 45.0 °F 86% 30.12 in 7.0 mi NNW 10.4 mph - 0.07 in Rain Rain
8:55 AM 49.1 °F 45.5 °F 87% 30.10 in 7.0 mi North 4.6 mph - 0.11 in Rain Rain
9:15 AM 49.3 °F 45.7 °F 87% 30.09 in 10.0 mi NNW 11.5 mph - 0.02 in Rain Light Rain
9:35 AM 49.3 °F 45.9 °F 88% 30.08 in 10.0 mi NNW 12.7 mph - 0.03 in Rain Light Rain
9:55 AM 51.3 °F 46.8 °F 85% 30.08 in 10.0 mi NNW 17.3 mph - 0.03 in   Mostly Cloudy
10:15 AM 52.7 °F 46.0 °F 78% 30.09 in 10.0 mi NNW 19.6 mph 26.5 mph N/A   Scattered Clouds
10:35 AM 54.1 °F 45.0 °F 71% 30.10 in 10.0 mi North 21.9 mph 25.3 mph N/A   Clear
10:55 AM 53.4 °F 43.7 °F 70% 30.12 in 10.0 mi North 16.1 mph 23.0 mph N/A   Mostly Cloudy
11:15 AM 54.9 °F 43.5 °F 66% 30.12 in 10.0 mi North 20.7 mph 24.2 mph N/A   Overcast
11:35 AM 55.9 °F 43.3 °F 63% 30.13 in 10.0 mi North 19.6 mph 24.2 mph N/A   Overcast
11:55 AM 56.1 °F 43.3 °F 62% 30.13 in 10.0 mi North 13.8 mph 20.7 mph N/A   Overcast
12:15 PM 59.0 °F 44.1 °F 58% 30.13 in 10.0 mi North 13.8 mph 21.9 mph N/A   Mostly Cloudy
12:35 PM 58.5 °F 41.5 °F 53% 30.14 in 10.0 mi North 16.1 mph 23.0 mph N/A   Mostly Cloudy
12:55 PM 58.1 °F 40.8 °F 53% 30.14 in 10.0 mi North 13.8 mph 19.6 mph N/A   Mostly Cloudy
1:15 PM 61.0 °F 42.3 °F 50% 30.13 in 10.0 mi North 15.0 mph 18.4 mph N/A   Scattered Clouds
1:35 PM 61.0 °F 42.6 °F 51% 30.13 in 10.0 mi North 10.4 mph - N/A   Mostly Cloudy
1:55 PM 61.0 °F 40.6 °F 47% 30.13 in 10.0 mi North 12.7 mph - N/A   Overcast
2:15 PM 63.0 °F 40.1 °F 43% 30.14 in 10.0 mi North 9.2 mph - N/A   Mostly Cloudy
2:35 PM 62.6 °F 39.6 °F 43% 30.13 in 10.0 mi North 10.4 mph - N/A   Mostly Cloudy
2:55 PM 61.9 °F 39.4 °F 43% 30.14 in 10.0 mi North 9.2 mph - N/A   Overcast
3:15 PM 63.9 °F 38.8 °F 40% 30.12 in 10.0 mi NNW 9.2 mph - N/A   Scattered Clouds
3:35 PM 64.2 °F 37.2 °F 37% 30.12 in 10.0 mi NNW 11.5 mph 17.3 mph N/A   Scattered Clouds
3:55 PM 64.6 °F 36.9 °F 36% 30.12 in 10.0 mi NNW 11.5 mph 20.7 mph N/A   Scattered Clouds
4:15 PM 65.1 °F 36.3 °F 34% 30.12 in 10.0 mi NNW 9.2 mph 18.4 mph N/A   Clear
4:35 PM 64.9 °F 34.3 °F 32% 30.12 in 10.0 mi NNW 9.2 mph - N/A   Clear
4:55 PM 64.9 °F 36.7 °F 35% 30.12 in 10.0 mi North 11.5 mph 16.1 mph N/A   Clear
5:15 PM 65.8 °F 34.9 °F 32% 30.12 in 10.0 mi NW 5.8 mph 17.3 mph N/A   Clear
5:35 PM 65.5 °F 34.2 °F 31% 30.11 in 10.0 mi North 8.1 mph 16.1 mph N/A   Clear
5:55 PM 65.5 °F 35.1 °F 32% 30.11 in 10.0 mi North 8.1 mph - N/A   Clear
6:15 PM 65.1 °F 35.4 °F 33% 30.11 in 10.0 mi NNE 11.5 mph - N/A   Clear
6:35 PM 64.8 °F 34.2 °F 32% 30.11 in 10.0 mi North 8.1 mph - N/A   Clear
6:55 PM 64.4 °F 35.6 °F 34% 30.11 in 10.0 mi North 8.1 mph - N/A   Clear
7:15 PM 63.3 °F 35.8 °F 36% 30.11 in 10.0 mi North 4.6 mph - N/A   Clear
7:35 PM 61.0 °F 38.3 °F 43% 30.12 in 10.0 mi North 4.6 mph - N/A   Clear
7:55 PM 58.6 °F 38.8 °F 48% 30.12 in 10.0 mi North 3.5 mph - N/A   Clear
8:15 PM 58.1 °F 37.4 °F 46% 30.13 in 10.0 mi North 3.5 mph - N/A   Clear
8:35 PM 56.5 °F 38.3 °F 51% 30.13 in 10.0 mi North 4.6 mph - N/A   Clear
8:55 PM 56.7 °F 37.9 °F 50% 30.15 in 10.0 mi North 4.6 mph - N/A   Clear
9:15 PM 53.8 °F 40.8 °F 62% 30.15 in 10.0 mi North 3.5 mph - N/A   Clear
9:35 PM 55.0 °F 38.3 °F 53% 30.16 in 10.0 mi North 5.8 mph - N/A   Clear
9:55 PM 53.2 °F 39.0 °F 59% 30.17 in 10.0 mi North 5.8 mph - N/A   Clear
10:15 PM 51.1 °F 41.4 °F 69% 30.17 in 10.0 mi NNE 5.8 mph - N/A   Clear
10:35 PM 50.0 °F 40.8 °F 71% 30.18 in 10.0 mi NE 3.5 mph - N/A   Clear
10:55 PM 48.9 °F 41.0 °F 74% 30.19 in 10.0 mi NE 3.5 mph - N/A   Clear
11:15 PM 49.3 °F 40.5 °F 72% 30.19 in 10.0 mi NE 3.5 mph - N/A   Clear
11:35 PM 48.2 °F 40.6 °F 75% 30.20 in 10.0 mi NE 4.6 mph - N/A   Clear
11:55 PM 47.7 °F 40.1 °F 75% 30.20 in 10.0 mi NE 3.5 mph - N/A   Clear